Wednesday, July 27, 2016, 1:40 AM EDT

KFYJ, West Point, Middle Peninsula Regional Airport

Location: Shacklefords, VA, United States Lat: 37.521
Local Time: 1:40 AM EDT ( 5:40 GMT) Lon: -76.764
Time Zone: US/Eastern Elev: 22 ft

Show me the last for .
Show Decoded

2016-07-27 01:15 METAR KFYJ 270515Z AUTO 00000KT 5SM SCT038 SCT050 26/25 A2993 RMK AO2 T02550245
                 =
2016-07-27 00:55 METAR KFYJ 270455Z AUTO 05003KT 4SM SCT037 SCT043 BKN060 26/24 A2993 RMK AO2
                 P0007 T02560243 =
2016-07-27 00:35 METAR KFYJ 270435Z AUTO 29004KT 7SM SCT060 BKN070 OVC110 26/24 A2996 RMK AO2
                 P0003 T02590244 =
2016-07-27 00:15 METAR KFYJ 270415Z AUTO 27006KT 7SM SCT019 SCT065 BKN110 26/25 A2997 RMK AO2
                 P0001 T02640249 =
2016-07-26 23:55 METAR KFYJ 270355Z AUTO 25007KT 7SM SCT008 SCT039 BKN085 27/26 A2997 RMK AO2
                 P0001 T02710255 =
2016-07-26 23:35 METAR KFYJ 270335Z AUTO 27005KT 10SM CLR 27/25 A2997 RMK AO2 T02730246 =
2016-07-26 23:15 METAR KFYJ 270315Z AUTO 28005KT 10SM CLR 27/25 A2997 RMK AO2 T02650250 =
2016-07-26 22:55 METAR KFYJ 270255Z AUTO 00000KT 10SM CLR 27/25 A2996 RMK AO2 T02650250 =
2016-07-26 22:35 METAR KFYJ 270235Z AUTO 00000KT 10SM CLR 27/25 A2996 RMK AO2 T02680250 =
2016-07-26 22:15 METAR KFYJ 270215Z AUTO 04003KT 10SM CLR 27/25 A2996 RMK AO2 T02700251 =
2016-07-26 21:55 METAR KFYJ 270155Z AUTO 00000KT 10SM CLR 27/25 A2995 RMK AO2 T02700250 =
2016-07-26 21:35 METAR KFYJ 270135Z AUTO 00000KT 10SM CLR 27/25 A2995 RMK AO2 T02740247 =
2016-07-26 21:15 METAR KFYJ 270115Z AUTO 00000KT 10SM SCT085 SCT120 28/25 A2994 RMK AO2 T02820250
                 =
2016-07-26 20:55 METAR KFYJ 270055Z AUTO 00000KT 10SM SCT042 SCT075 SCT085 28/25 A2996 RMK AO2
                 T02840250 =
2016-07-26 20:35 METAR KFYJ 270035Z AUTO 00000KT 10SM SCT042 SCT060 29/25 A2995 RMK AO2 T02860248
                 =
2016-07-26 20:15 METAR KFYJ 270015Z AUTO 09003KT 10SM SCT060 29/25 A2994 RMK AO2 T02900247 =
2016-07-26 19:55 METAR KFYJ 262355Z AUTO 12006KT 10SM SCT047 30/25 A2993 RMK AO2 T02950250 10351
                 20280 =
2016-07-26 19:35 METAR KFYJ 262335Z AUTO 12003KT 10SM CLR 30/25 A2993 RMK AO2 T02960247 =
2016-07-26 19:15 METAR KFYJ 262315Z AUTO 13005KT 10SM SCT055 31/24 A2993 RMK AO2 T03050244 =
2016-07-26 18:55 METAR KFYJ 262255Z AUTO 11004KT 10SM CLR 31/25 A2993 RMK AO2 T03110245 =
2016-07-26 18:35 METAR KFYJ 262235Z AUTO 12003KT 10SM CLR 31/25 A2992 RMK AO2 T03070245 =
2016-07-26 18:15 METAR KFYJ 262215Z AUTO 09004KT 10SM SCT070 SCT085 31/24 A2992 RMK AO2 T03060242
                 =
2016-07-26 17:55 METAR KFYJ 262155Z AUTO 06005KT 7SM SCT050 SCT060 SCT070 31/24 A2992 RMK AO2
                 T03080236 =
2016-07-26 17:35 METAR KFYJ 262135Z AUTO 12005KT 10SM SCT050 SCT060 BKN085 31/24 A2992 RMK AO2
                 T03060236 =
2016-07-26 17:15 METAR KFYJ 262115Z AUTO 00000KT 10SM SCT014 SCT030 SCT039 30/24 A2992 RMK AO2
                 T02950235 =
2016-07-26 16:55 METAR KFYJ 262055Z AUTO 11003KT 10SM SCT018 SCT034 BKN055 28/23 A2991 RMK AO2
                 T02820227 =
2016-07-26 16:35 METAR KFYJ 262035Z AUTO 08007KT 10SM SCT050 BKN070 BKN095 30/22 A2992 RMK AO2
                 T02960220 =
2016-07-26 16:15 METAR KFYJ 262015Z AUTO 08008KT 10SM BKN050 BKN070 OVC090 30/22 A2992 RMK AO2
                 T03000221 =
2016-07-26 15:55 METAR KFYJ 261955Z AUTO 08009KT 10SM BKN050 OVC055 31/23 A2993 RMK AO2 T03060233
                 =
2016-07-26 15:35 METAR KFYJ 261935Z AUTO 00000KT 10SM SCT050 BKN055 35/23 A2992 RMK AO2 T03510233
                 =
2016-07-26 15:15 METAR KFYJ 261915Z AUTO 24004KT 10SM SCT049 BKN055 35/23 A2993 RMK AO2 T03490228
                 =
2016-07-26 14:55 METAR KFYJ 261855Z AUTO 22004KT 10SM SCT049 OVC055 35/23 A2993 RMK AO2 T03470227
                 =
2016-07-26 14:35 METAR KFYJ 261835Z AUTO 21006KT 10SM SCT055 BKN065 BKN080 35/23 A2994 RMK AO2
                 T03460226 =
2016-07-26 14:15 METAR KFYJ 261815Z AUTO 19005KT 10SM SCT075 35/23 A2994 RMK AO2 T03480227 =
2016-07-26 13:55 METAR KFYJ 261755Z AUTO 21005KT 10SM CLR 34/23 A2995 RMK AO2 T03420227 10345
                 20280 =
2016-07-26 13:35 METAR KFYJ 261735Z AUTO 00000KT 10SM CLR 34/23 A2995 RMK AO2 T03400225 =
2016-07-26 13:15 METAR KFYJ 261715Z AUTO 26004KT 10SM CLR 34/24 A2995 RMK AO2 T03440236 =
2016-07-26 12:55 METAR KFYJ 261655Z AUTO 25004KT 10SM CLR 34/23 A2996 RMK AO2 T03380228 =
2016-07-26 12:35 METAR KFYJ 261635Z AUTO 00000KT 10SM CLR 34/23 A2996 RMK AO2 T03350227 =
2016-07-26 12:15 METAR KFYJ 261615Z AUTO 00000KT 10SM CLR 34/22 A2997 RMK AO2 T03350220 =
2016-07-26 11:55 METAR KFYJ 261555Z AUTO 00000KT 10SM CLR 33/23 A2997 RMK AO2 T03290227 =
2016-07-26 11:35 METAR KFYJ 261535Z AUTO 31004KT 10SM 33/23 A2997 RMK AO2 T03260229 =
2016-07-26 11:15 METAR KFYJ 261515Z AUTO 30003KT 10SM CLR 32/23 A2997 RMK AO2 T03230229 =
2016-07-26 10:55 METAR KFYJ 261455Z AUTO 32003KT 10SM CLR 32/24 A2997 RMK AO2 T03200237 =
2016-07-26 10:35 METAR KFYJ 261435Z AUTO 35003KT 10SM CLR 31/24 A2997 RMK AO2 T03120236 =
2016-07-26 10:15 METAR KFYJ 261415Z AUTO 00000KT 10SM CLR 31/24 A2997 RMK AO2 T03110244 =
2016-07-26 09:55 METAR KFYJ 261355Z AUTO 27004KT 10SM CLR 31/25 A2997 RMK AO2 T03050245 =
2016-07-26 09:35 METAR KFYJ 261335Z AUTO 24004KT 10SM CLR 30/24 A2997 RMK AO2 T03000242 =
2016-07-26 09:15 METAR KFYJ 261315Z AUTO 26005KT 10SM CLR 30/24 A2997 RMK AO2 T02960244 =
2016-07-26 08:55 METAR KFYJ 261255Z AUTO 27006KT 10SM CLR 29/24 A2997 RMK AO2 T02900241 =
2016-07-26 08:35 METAR KFYJ 261235Z AUTO 27006KT 10SM CLR 29/24 A2996 RMK AO2 T02850238 =
2016-07-26 08:15 METAR KFYJ 261215Z AUTO 26006KT 10SM CLR 28/24 A2996 RMK AO2 T02810240 =
2016-07-26 07:55 METAR KFYJ 261155Z AUTO 26004KT 10SM CLR 28/24 A2996 RMK AO2 T02790239 10286
                 20261 =
2016-07-26 07:35 METAR KFYJ 261135Z AUTO 26004KT 10SM CLR 28/24 A2996 RMK AO2 T02750240 =
2016-07-26 07:15 METAR KFYJ 261115Z AUTO 26004KT 10SM CLR 27/24 A2996 RMK AO2 T02700241 =
2016-07-26 06:55 METAR KFYJ 261055Z AUTO 25006KT 10SM CLR 27/24 A2996 RMK AO2 T02660241 =
2016-07-26 06:35 METAR KFYJ 261035Z AUTO 25004KT 10SM CLR 27/24 A2995 RMK AO2 T02650241 =
2016-07-26 06:15 METAR KFYJ 261015Z AUTO 24005KT 10SM CLR 26/24 A2995 RMK AO2 T02620240 =
2016-07-26 05:55 METAR KFYJ 260955Z AUTO 25005KT 10SM CLR 27/24 A2994 RMK AO2 T02650240 =
2016-07-26 05:35 METAR KFYJ 260935Z AUTO 26005KT 10SM CLR 27/24 A2994 RMK AO2 T02650240 =
2016-07-26 05:15 METAR KFYJ 260915Z AUTO 24005KT 10SM CLR 27/24 A2993 RMK AO2 T02660240 =
2016-07-26 04:55 METAR KFYJ 260855Z AUTO 23004KT 10SM CLR 27/24 A2993 RMK AO2 T02670240 =
2016-07-26 04:35 METAR KFYJ 260835Z AUTO 00000KT 10SM CLR 27/24 A2993 RMK AO2 T02690240 =
2016-07-26 04:15 METAR KFYJ 260815Z AUTO 23006KT 10SM CLR 27/24 A2993 RMK AO2 T02720240 =
2016-07-26 03:55 METAR KFYJ 260755Z AUTO 24005KT 10SM SCT070 28/24 A2993 RMK AO2 T02750238 =
2016-07-26 03:35 METAR KFYJ 260735Z AUTO 22003KT 10SM BKN070 28/24 A2993 RMK AO2 T02760240 =
2016-07-26 03:15 METAR KFYJ 260715Z AUTO 21005KT 10SM BKN070 28/24 A2993 RMK AO2 T02800240 =
2016-07-26 02:55 METAR KFYJ 260655Z AUTO 21004KT 10SM BKN070 28/24 A2993 RMK AO2 T02810240 =
2016-07-26 02:35 METAR KFYJ 260635Z AUTO 20005KT 10SM SCT070 28/24 A2993 RMK AO2 T02820240 =
2016-07-26 02:15 METAR KFYJ 260615Z AUTO 23006KT 10SM SCT070 29/24 A2993 RMK AO2 T02850238 =
2016-07-26 01:55 METAR KFYJ 260555Z AUTO 23007KT 10SM CLR 29/24 A2993 RMK AO2 T02870240 10314
                 20287 403500251 =

Support USWX by starting your Amazon purchase here.